Time;durP1;ratioP1;P1;durP2;ratioP2;P2;SDS_P1;SDS_P2;PMS_P1;PMS_P2;Temp;Humidity;BMP_temperature;BMP_pressure;BME280_temperature;BME280_humidity;BME280_pressure;Samples;Min_cycle;Max_cycle;Signal;HPM_P1;HPM_P2
2023/10/16 00:01:31;;;;;;;27.03;12.70;;;;;;;13.60;100.00;98834.47;5040824;28;20279;-61
2023/10/16 00:04:04;;;;;;;29.80;11.93;;;;;;;13.60;100.00;98821.34;5034631;28;20375;-61
2023/10/16 00:06:35;;;;;;;40.47;14.00;;;;;;;13.65;100.00;98816.69;5034405;28;20086;-60
2023/10/16 00:09:14;;;;;;;30.48;12.73;;;;;;;13.70;100.00;98809.44;5042292;28;20298;-59
2023/10/16 00:11:47;;;;;;;24.38;12.48;;;;;;;13.80;100.00;98805.44;5022266;28;20032;-59
2023/10/16 00:14:23;;;;;;;30.70;13.47;;;;;;;13.89;100.00;98798.81;5031050;28;20037;-59
2023/10/16 00:16:54;;;;;;;25.23;12.97;;;;;;;14.03;100.00;98795.47;5050493;28;20279;-59
2023/10/16 00:19:25;;;;;;;35.03;12.37;;;;;;;14.17;100.00;98785.03;5041631;28;20274;-59
2023/10/16 00:21:57;;;;;;;38.50;12.47;;;;;;;14.34;100.00;98784.13;5053634;28;20301;-59
2023/10/16 00:24:28;;;;;;;31.40;12.57;;;;;;;14.51;99.72;98785.81;5035678;28;20336;-60
2023/10/16 00:27:00;;;;;;;33.63;12.07;;;;;;;14.77;98.56;98770.38;5046011;28;20282;-59
2023/10/16 00:29:35;;;;;;;21.47;10.83;;;;;;;15.13;98.82;98771.81;5043282;28;20347;-59
2023/10/16 00:32:07;;;;;;;25.17;11.23;;;;;;;15.57;97.46;98765.66;5053141;28;20386;-59
2023/10/16 00:34:37;;;;;;;23.47;10.07;;;;;;;15.75;94.23;98756.69;5042785;28;20289;-61
2023/10/16 00:37:09;;;;;;;25.90;10.07;;;;;;;15.74;92.47;98754.97;5045714;28;20272;-60
2023/10/16 00:39:40;;;;;;;25.97;9.43;;;;;;;15.73;91.91;98755.94;5025637;28;20290;-59
2023/10/16 00:42:12;;;;;;;20.97;8.73;;;;;;;15.81;91.12;98748.41;5045219;28;20860;-60
2023/10/16 00:44:43;;;;;;;18.43;9.40;;;;;;;15.79;90.41;98739.75;5063698;28;20274;-60
2023/10/16 00:47:14;;;;;;;21.90;9.30;;;;;;;15.64;88.87;98730.13;5038017;28;20287;-61
2023/10/16 00:49:47;;;;;;;21.27;9.47;;;;;;;15.56;89.25;98742.94;5053297;28;20330;-59
2023/10/16 00:52:19;;;;;;;18.47;8.90;;;;;;;15.58;90.14;98727.88;5021837;28;20299;-60
2023/10/16 00:54:53;;;;;;;18.77;8.80;;;;;;;15.38;88.92;98729.94;5041724;28;20282;-61
2023/10/16 00:57:27;;;;;;;23.73;9.67;;;;;;;15.31;89.84;98728.63;5040495;28;20322;-61
2023/10/16 00:59:59;;;;;;;21.67;8.80;;;;;;;15.33;90.01;98716.22;5049894;28;20359;-60
2023/10/16 01:02:32;;;;;;;18.07;8.10;;;;;;;15.32;90.09;98714.50;5029768;28;20626;-61
2023/10/16 01:05:04;;;;;;;21.33;8.20;;;;;;;15.26;90.01;98704.38;5034044;28;20373;-61
2023/10/16 01:07:36;;;;;;;20.43;8.00;;;;;;;15.21;90.09;98694.13;5024348;28;20354;-61
2023/10/16 01:10:10;;;;;;;17.13;7.33;;;;;;;15.16;90.17;98697.97;5030478;28;20291;-61
2023/10/16 01:12:54;;;;;;;18.47;8.17;;;;;;;15.02;90.32;98714.56;5033174;28;20278;-61
2023/10/16 01:15:25;;;;;;;20.93;8.03;;;;;;;14.70;90.88;98705.94;5040286;28;20290;-60
2023/10/16 01:17:56;;;;;;;15.73;7.67;;;;;;;14.49;91.52;98713.25;5050733;28;20787;-62
2023/10/16 01:20:26;;;;;;;20.60;8.73;;;;;;;14.28;92.60;98694.28;5040473;28;20278;-60
2023/10/16 01:22:57;;;;;;;20.63;8.17;;;;;;;14.11;93.97;98682.94;5050351;28;20278;-61
2023/10/16 01:25:29;;;;;;;18.57;8.47;;;;;;;14.05;94.78;98699.03;5040352;28;20294;-60
2023/10/16 01:27:59;;;;;;;20.60;9.07;;;;;;;13.87;96.90;98686.94;5049302;28;20274;-61
2023/10/16 01:30:29;;;;;;;33.57;10.27;;;;;;;13.56;100.00;98691.25;5040408;28;20274;-62
2023/10/16 01:33:00;;;;;;;22.43;10.53;;;;;;;13.27;100.00;98701.47;5050565;28;20344;-61
2023/10/16 01:35:31;;;;;;;24.87;10.27;;;;;;;13.09;100.00;98710.28;5040046;28;20283;-60
2023/10/16 01:38:01;;;;;;;20.57;10.33;;;;;;;12.92;100.00;98701.50;5049639;28;20292;-61
2023/10/16 01:40:37;;;;;;;21.13;10.53;;;;;;;12.80;100.00;98715.22;5040180;28;20390;-61
2023/10/16 01:43:07;;;;;;;21.50;10.27;;;;;;;12.67;100.00;98727.25;5050363;28;20389;-61
2023/10/16 01:45:39;;;;;;;20.20;10.80;;;;;;;12.55;100.00;98723.44;5040161;28;20278;-62
2023/10/16 01:48:11;;;;;;;21.97;10.60;;;;;;;12.47;100.00;98742.16;5050254;28;20352;-64
2023/10/16 01:50:42;;;;;;;18.80;9.97;;;;;;;12.38;100.00;98732.16;5022522;28;20818;-63
2023/10/16 01:53:15;;;;;;;21.33;10.88;;;;;;;12.32;100.00;98753.38;5036065;28;20278;-64
2023/10/16 01:55:54;;;;;;;23.67;10.90;;;;;;;12.20;100.00;98730.38;5042057;28;20048;-62
2023/10/16 01:58:26;;;;;;;10.30;5.07;;;;;;;12.06;100.00;98700.47;5024146;28;20828;-63
2023/10/16 02:00:56;;;;;;;10.80;5.00;;;;;;;12.18;100.00;98704.28;5030353;28;20080;-62
2023/10/16 02:03:27;;;;;;;8.15;4.90;;;;;;;12.31;100.00;98699.31;5037847;28;20112;-61
2023/10/16 02:05:59;;;;;;;8.52;5.03;;;;;;;12.45;100.00;98711.72;5050488;28;20457;-62
2023/10/16 02:08:30;;;;;;;15.85;5.88;;;;;;;12.55;100.00;98712.97;5039619;28;20059;-59
2023/10/16 02:11:02;;;;;;;12.40;6.70;;;;;;;12.67;100.00;98711.53;5049618;28;20509;-59
2023/10/16 02:13:35;;;;;;;10.93;5.22;;;;;;;12.79;100.00;98710.06;5039956;28;20060;-61
2023/10/16 02:16:06;;;;;;;8.23;5.13;;;;;;;12.81;100.00;98714.31;5049028;28;20143;-62
2023/10/16 02:18:37;;;;;;;11.20;4.88;;;;;;;12.83;100.00;98717.72;5027557;28;21148;-61
2023/10/16 02:21:11;;;;;;;8.18;4.32;;;;;;;12.86;100.00;98709.69;5038244;28;20083;-61
2023/10/16 02:23:43;;;;;;;9.45;4.40;;;;;;;13.01;100.00;98694.09;5032631;28;20056;-61
2023/10/16 02:26:18;;;;;;;8.33;4.30;;;;;;;13.14;100.00;98693.38;5039975;28;20135;-62
2023/10/16 02:28:54;;;;;;;5.30;3.00;;;;;;;13.26;100.00;98693.69;5049691;28;20290;-61
2023/10/16 02:31:25;;;;;;;6.63;2.50;;;;;;;13.32;100.00;98694.22;5040039;28;20289;-61
2023/10/16 02:34:09;;;;;;;6.07;2.67;;;;;;;13.38;100.00;98688.66;5049646;28;20800;-61
2023/10/16 02:36:40;;;;;;;4.88;2.45;;;;;;;13.44;100.00;98694.50;5039730;28;20293;-61
2023/10/16 02:39:27;;;;;;;4.55;2.22;;;;;;;13.40;100.00;98693.81;5039551;28;20049;-60
2023/10/16 02:41:59;;;;;;;4.67;2.10;;;;;;;13.32;100.00;98703.88;5036833;28;20056;-62
2023/10/16 02:44:30;;;;;;;4.93;2.63;;;;;;;13.32;100.00;98696.00;5037156;28;20386;-61
2023/10/16 02:47:05;;;;;;;4.70;2.67;;;;;;;13.36;100.00;98701.00;5042391;28;20287;-60
2023/10/16 02:49:36;;;;;;;5.03;2.50;;;;;;;13.38;100.00;98703.56;5023240;28;20055;-60
2023/10/16 02:52:06;;;;;;;4.68;2.50;;;;;;;13.38;100.00;98704.41;5044604;28;20474;-63
2023/10/16 02:54:37;;;;;;;7.77;2.90;;;;;;;13.46;100.00;98700.53;5023129;28;20764;-60
2023/10/16 02:57:10;;;;;;;7.10;2.77;;;;;;;13.45;100.00;98698.81;5033666;28;20385;-61
2023/10/16 02:59:43;;;;;;;4.57;2.70;;;;;;;13.46;100.00;98705.78;5031204;28;20297;-60
2023/10/16 03:02:17;;;;;;;4.57;2.67;;;;;;;13.48;100.00;98709.13;5038786;28;20305;-61
2023/10/16 03:04:51;;;;;;;5.87;2.73;;;;;;;13.54;100.00;98706.22;5048839;28;20374;-60
2023/10/16 03:07:22;;;;;;;4.13;2.60;;;;;;;13.57;100.00;98708.66;5040793;28;20295;-60
2023/10/16 03:09:56;;;;;;;7.20;2.67;;;;;;;13.67;100.00;98694.13;5051135;28;20493;-60
2023/10/16 03:12:28;;;;;;;5.57;2.70;;;;;;;13.70;100.00;98688.69;5043159;28;20282;-60
2023/10/16 03:15:01;;;;;;;5.33;2.80;;;;;;;13.73;100.00;98701.69;5052824;28;20355;-60
2023/10/16 03:17:35;;;;;;;3.50;2.50;;;;;;;13.78;100.00;98702.28;5042687;28;20439;-60
2023/10/16 03:20:16;;;;;;;5.50;2.67;;;;;;;13.82;100.00;98708.19;5051915;28;20758;-61
2023/10/16 03:22:47;;;;;;;6.47;2.43;;;;;;;13.59;100.00;98706.81;5040529;28;20275;-61
2023/10/16 03:25:50;;;;;;;1.30;0.95;;;;;;;13.23;99.04;98715.66;5035000;28;20284;-61
2023/10/16 03:28:19;;;;;;;1.60;0.80;;;;;;;12.81;95.26;98713.47;5032861;28;20059;-61
2023/10/16 03:30:50;;;;;;;2.30;0.80;;;;;;;12.36;96.45;98734.00;5043601;28;20333;-61
2023/10/16 03:33:20;;;;;;;2.70;0.90;;;;;;;11.93;94.40;98751.72;5024990;28;20287;-60
2023/10/16 03:35:51;;;;;;;4.85;0.95;;;;;;;11.49;95.49;98741.47;5032458;28;20053;-61
2023/10/16 03:38:34;;;;;;;3.03;1.10;;;;;;;11.07;97.14;98750.25;5026877;28;20049;-62
2023/10/16 03:41:12;;;;;;;4.55;1.48;;;;;;;10.78;98.78;98757.56;5041163;28;20041;-61
2023/10/16 03:43:44;;;;;;;5.80;1.33;;;;;;;10.61;98.99;98767.84;5025119;28;20139;-61
2023/10/16 03:46:15;;;;;;;6.35;1.50;;;;;;;10.57;99.80;98776.69;5022092;28;20491;-61
2023/10/16 03:48:46;;;;;;;9.05;1.23;;;;;;;10.70;100.00;98771.81;5036643;28;20549;-61
2023/10/16 03:51:17;;;;;;;4.38;1.63;;;;;;;10.77;99.61;98776.75;5017514;28;20736;-60
2023/10/16 03:53:50;;;;;;;5.50;1.50;;;;;;;10.84;98.75;98785.19;5034219;28;20051;-60
2023/10/16 03:56:21;;;;;;;6.68;1.45;;;;;;;10.93;97.40;98773.50;5023347;28;20535;-60
2023/10/16 03:58:55;;;;;;;7.25;1.45;;;;;;;11.01;97.10;98777.50;5035113;28;20160;-60
2023/10/16 04:01:27;;;;;;;3.30;1.80;;;;;;;10.91;96.95;98755.28;5022791;28;20079;-60
2023/10/16 04:03:58;;;;;;;7.13;1.58;;;;;;;11.18;94.92;98789.88;5039683;28;20055;-60
2023/10/16 04:06:30;;;;;;;11.45;1.77;;;;;;;11.22;94.69;98780.97;5027256;28;20055;-60
2023/10/16 04:09:03;;;;;;;5.85;2.03;;;;;;;11.25;93.39;98794.81;5034759;28;20061;-60
2023/10/16 04:11:34;;;;;;;10.25;1.85;;;;;;;11.27;93.05;98786.00;5026957;28;20052;-60
2023/10/16 04:14:14;;;;;;;5.55;1.70;;;;;;;11.43;91.22;98794.03;5038480;28;20062;-60
2023/10/16 04:16:43;;;;;;;3.55;1.55;;;;;;;11.48;90.97;98792.06;5039354;28;20061;-61
2023/10/16 04:22:07;;;;;;;5.35;1.70;;;;;;;11.62;91.23;98802.78;5043099;28;20164;-60
2023/10/16 04:24:54;;;;;;;8.05;1.50;;;;;;;11.72;90.59;98800.59;5025634;28;20364;-61
2023/10/16 04:27:35;;;;;;;4.28;1.60;;;;;;;11.98;91.14;98799.47;5025718;28;20049;-60
2023/10/16 04:33:13;;;;;;;4.00;1.60;;;;;;;12.22;88.33;98809.72;5019285;28;20517;-60
2023/10/16 04:38:52;;;;;;;4.15;1.92;;;;;;;12.11;87.66;98812.00;4992087;28;20121;-60
2023/10/16 04:47:19;;;;;;;5.80;1.57;;;;;;;12.04;88.63;98809.66;5036205;27;1908112;-60
2023/10/16 04:49:59;;;;;;;3.60;1.20;;;;;;;11.99;88.26;98802.94;5107942;27;20056;-60
2023/10/16 05:01:17;;;;;;;10.07;1.75;;;;;;;11.65;87.93;98815.72;5095123;27;20137;-61
2023/10/16 05:04:24;;;;;;;4.97;1.13;;;;;;;11.57;86.80;98825.66;5096265;27;21260;-61
2023/10/16 05:06:56;;;;;;;1.67;0.90;;;;;;;11.51;87.74;98823.34;5096113;27;20046;-60
2023/10/16 05:15:37;;;;;;;5.85;0.93;;;;;;;11.46;87.75;98825.28;5106825;27;20139;-60
2023/10/16 05:18:12;;;;;;;2.10;0.70;;;;;;;11.46;87.53;98825.28;5106901;27;20662;-60
2023/10/16 06:16:38;;;;;;;3.08;1.70;;;;;;;10.07;73.22;98923.03;5081452;27;20126;-61
2023/10/16 06:19:14;;;;;;;3.50;1.35;;;;;;;9.94;72.52;98928.69;5091929;27;20055;-60
2023/10/16 06:21:46;;;;;;;11.13;1.85;;;;;;;9.92;73.18;98933.09;5081292;27;20048;-60
2023/10/16 06:24:32;;;;;;;5.63;1.70;;;;;;;9.82;72.17;98934.34;5081889;27;20039;-61
2023/10/16 06:27:08;;;;;;;1.33;1.10;;;;;;;9.78;73.07;98950.97;5091898;27;20055;-60
2023/10/16 06:29:49;;;;;;;4.13;1.95;;;;;;;9.62;72.80;98936.78;5081158;27;20059;-62
2023/10/16 06:32:20;;;;;;;3.28;1.55;;;;;;;9.66;72.07;98948.78;5081432;27;20082;-61
2023/10/16 06:34:57;;;;;;;8.90;1.80;;;;;;;9.69;72.26;98959.13;5091281;27;20702;-60
2023/10/16 06:37:31;;;;;;;4.35;1.60;;;;;;;9.49;70.09;98938.94;5080982;27;20047;-61
2023/10/16 06:40:04;;;;;;;7.07;1.70;;;;;;;9.45;70.79;98932.97;5091838;27;20155;-63
2023/10/16 06:42:36;;;;;;;6.60;1.88;;;;;;;9.59;70.98;98957.75;5080949;27;20394;-62
2023/10/16 06:45:08;;;;;;;5.90;1.63;;;;;;;9.68;71.97;98957.41;5091804;27;20039;-62
2023/10/16 06:47:47;;;;;;;5.22;1.50;;;;;;;9.59;70.66;98962.97;5080777;27;20051;-62
2023/10/16 06:50:42;;;;;;;3.72;1.92;;;;;;;9.53;72.59;98978.78;5080949;27;20481;-62
2023/10/16 06:53:12;;;;;;;4.03;2.10;;;;;;;9.32;73.09;98970.78;5080816;27;20063;-61
2023/10/16 06:55:45;;;;;;;3.80;1.48;;;;;;;8.93;72.55;98937.22;5090954;27;20050;-60
2023/10/16 06:58:18;;;;;;;7.60;1.77;;;;;;;9.13;73.27;98980.06;5080440;27;20875;-61
2023/10/16 07:00:49;;;;;;;5.32;1.90;;;;;;;9.02;73.63;98989.06;5091277;27;20066;-61
2023/10/16 07:03:20;;;;;;;5.95;1.90;;;;;;;8.85;72.98;98986.94;5080620;27;20610;-61
2023/10/16 07:05:51;;;;;;;7.10;1.90;;;;;;;8.74;73.37;98993.41;5091135;27;20055;-60
2023/10/16 07:08:22;;;;;;;10.20;2.70;;;;;;;8.34;72.28;98969.31;5080168;27;20134;-60
2023/10/16 07:10:56;;;;;;;7.00;1.92;;;;;;;8.44;72.67;98990.78;5090685;27;20147;-60
2023/10/16 07:13:31;;;;;;;8.68;1.80;;;;;;;8.35;72.67;99009.22;5080637;27;20864;-62
2023/10/16 07:16:02;;;;;;;6.15;1.50;;;;;;;7.71;72.83;98921.59;5091008;27;20050;-60
2023/10/16 07:18:35;;;;;;;6.78;2.03;;;;;;;7.44;72.63;98911.88;5079465;27;20047;-62
2023/10/16 07:21:09;;;;;;;8.52;2.08;;;;;;;7.97;72.45;99004.13;5091046;27;20051;-60
2023/10/16 07:23:40;;;;;;;10.23;2.58;;;;;;;7.92;71.63;99007.75;5080588;27;20883;-61
2023/10/16 07:26:12;;;;;;;5.28;1.77;;;;;;;7.85;71.52;99011.41;5089697;27;20058;-61
2023/10/16 07:28:48;;;;;;;8.02;1.90;;;;;;;7.79;71.98;99022.81;5090685;27;20122;-61
2023/10/16 07:31:19;;;;;;;4.07;1.73;;;;;;;7.70;72.17;99018.69;5080019;27;20548;-61
2023/10/16 07:33:54;;;;;;;5.88;2.25;;;;;;;7.72;71.70;99027.31;5090539;27;20059;-61
2023/10/16 07:36:25;;;;;;;7.45;2.13;;;;;;;7.55;71.29;99019.91;5079907;27;20055;-60
2023/10/16 07:38:55;;;;;;;10.02;1.80;;;;;;;7.50;71.94;99033.91;5090661;27;20143;-62
2023/10/16 07:41:26;;;;;;;4.10;1.65;;;;;;;7.40;71.47;99029.81;5079598;27;20174;-61
2023/10/16 07:44:04;;;;;;;6.13;1.60;;;;;;;7.29;71.86;99037.88;5090373;27;20083;-61
2023/10/16 07:46:36;;;;;;;4.55;1.63;;;;;;;7.24;72.08;99030.16;5079622;27;20509;-61
2023/10/16 07:49:12;;;;;;;2.42;1.45;;;;;;;7.17;71.98;99033.78;5090705;27;20043;-61
2023/10/16 07:51:46;;;;;;;6.65;2.13;;;;;;;7.16;72.17;99049.41;5079213;27;20675;-61
2023/10/16 07:54:17;;;;;;;12.15;2.80;;;;;;;7.11;72.63;99036.50;5080042;27;20047;-60
2023/10/16 07:56:49;;;;;;;9.07;2.80;;;;;;;7.20;74.21;99036.31;5089769;27;21202;-61
2023/10/16 07:59:21;;;;;;;6.57;2.15;;;;;;;7.14;74.80;99044.25;5079861;27;20047;-61
2023/10/16 08:01:54;;;;;;;3.53;1.80;;;;;;;7.08;74.09;99044.38;5089705;27;20115;-61
2023/10/16 08:04:36;;;;;;;2.67;1.73;;;;;;;7.03;74.11;99056.59;5079233;27;20051;-61
2023/10/16 08:07:10;;;;;;;3.58;1.70;;;;;;;6.90;73.01;99062.06;5089663;27;20062;-61
2023/10/16 08:12:36;;;;;;;10.38;2.47;;;;;;;6.84;73.40;99066.50;5079251;27;20044;-61
2023/10/16 08:15:16;;;;;;;8.38;1.92;;;;;;;6.76;73.34;99058.88;5090150;27;20052;-61
2023/10/16 08:17:46;;;;;;;7.80;2.25;;;;;;;6.80;74.12;99059.69;5079401;27;20055;-60
2023/10/16 08:20:21;;;;;;;5.63;2.13;;;;;;;6.69;74.44;99042.59;5078923;27;20377;-61
2023/10/16 08:22:52;;;;;;;9.73;2.47;;;;;;;6.70;74.57;99052.06;5088999;27;20046;-61
2023/10/16 08:25:32;;;;;;;6.15;2.38;;;;;;;6.71;74.84;99060.72;5079279;27;20061;-61
2023/10/16 08:28:19;;;;;;;7.88;2.40;;;;;;;6.64;74.51;99061.72;5089520;27;21095;-61
2023/10/16 08:30:53;;;;;;;6.80;2.38;;;;;;;6.56;74.80;99068.81;5079122;27;20274;-61
2023/10/16 08:33:30;;;;;;;9.10;2.97;;;;;;;6.51;75.08;99078.41;5080093;27;20062;-61
2023/10/16 08:36:01;;;;;;;12.05;4.10;;;;;;;6.45;74.73;99080.25;5089019;27;20059;-61
2023/10/16 08:38:36;;;;;;;7.53;3.80;;;;;;;6.45;74.57;99075.06;5079023;27;20064;-61
2023/10/16 08:41:14;;;;;;;7.10;2.95;;;;;;;6.41;74.38;99073.38;5089696;27;20046;-60
2023/10/16 08:43:55;;;;;;;8.05;3.22;;;;;;;6.38;74.59;99076.06;5078719;28;20052;-60
2023/10/16 08:46:32;;;;;;;15.07;3.25;;;;;;;6.35;75.02;99081.31;5078785;28;20075;-61
2023/10/16 08:49:03;;;;;;;9.32;3.13;;;;;;;6.29;75.57;99078.84;5089216;28;20055;-61
2023/10/16 08:51:34;;;;;;;6.45;3.53;;;;;;;6.27;75.38;99075.41;5078306;28;20055;-61
2023/10/16 08:54:27;;;;;;;12.30;3.35;;;;;;;6.21;76.01;99085.88;5089681;28;20058;-60
2023/10/16 08:56:56;;;;;;;9.18;3.03;;;;;;;6.19;76.42;99092.81;5089693;28;20109;-60
2023/10/16 08:59:28;;;;;;;10.57;3.40;;;;;;;6.09;77.04;99086.97;5078743;28;20051;-61
2023/10/16 09:02:01;;;;;;;10.98;3.50;;;;;;;5.99;76.88;99078.47;5088941;28;20083;-60
2023/10/16 09:04:32;;;;;;;9.50;2.65;;;;;;;5.96;77.17;99096.66;5078939;28;20438;-61
2023/10/16 09:07:03;;;;;;;9.95;2.85;;;;;;;5.91;77.19;99093.25;5089338;28;20597;-61
2023/10/16 09:09:34;;;;;;;11.63;3.72;;;;;;;5.85;78.28;99083.00;5078781;28;20047;-60
2023/10/16 09:12:10;;;;;;;8.82;2.80;;;;;;;5.73;79.07;99093.56;5089435;28;20490;-61
2023/10/16 09:14:42;;;;;;;7.03;2.72;;;;;;;5.66;79.98;99091.94;5078276;28;20523;-61
2023/10/16 09:17:14;;;;;;;7.15;3.05;;;;;;;5.62;80.89;99086.81;5079376;28;20447;-61
2023/10/16 09:19:48;;;;;;;5.80;2.58;;;;;;;5.47;81.08;99074.09;5089192;28;20142;-61
2023/10/16 09:22:35;;;;;;;10.57;4.30;;;;;;;5.45;81.59;99081.00;5078451;28;20055;-61
2023/10/16 09:25:10;;;;;;;7.93;3.10;;;;;;;5.43;81.39;99080.16;5089117;28;20124;-60
2023/10/16 09:27:54;;;;;;;8.77;5.53;;;;;;;5.32;80.97;99084.66;5088795;28;20134;-60
2023/10/16 09:30:28;;;;;;;15.13;5.97;;;;;;;5.06;81.46;99096.22;5078816;28;20044;-61
2023/10/16 09:33:00;;;;;;;7.18;4.10;;;;;;;4.63;83.57;99099.31;5091333;27;20452;-61
2023/10/16 09:35:32;;;;;;;6.10;2.60;;;;;;;4.29;85.10;99101.38;5082311;27;20489;-60
2023/10/16 09:38:23;;;;;;;7.10;3.25;;;;;;;4.06;87.04;99104.19;5092871;27;20086;-60
2023/10/16 09:43:46;;;;;;;5.55;2.47;;;;;;;3.88;89.22;99098.28;5082013;27;20149;-61
2023/10/16 09:49:05;;;;;;;7.22;2.88;;;;;;;3.66;90.76;99099.31;5095606;27;20126;-60
2023/10/16 09:51:36;;;;;;;14.45;6.00;;;;;;;3.29;91.43;99063.41;5079409;27;20051;-61
2023/10/16 09:54:23;;;;;;;8.73;4.70;;;;;;;3.46;92.43;99100.31;5082204;27;20386;-60
2023/10/16 09:56:59;;;;;;;10.23;4.00;;;;;;;3.38;93.26;99104.66;5092643;27;20063;-61
2023/10/16 09:59:38;;;;;;;7.13;3.45;;;;;;;3.27;93.78;99085.81;5081868;27;20138;-60
2023/10/16 10:02:18;;;;;;;5.45;2.42;;;;;;;3.27;94.95;99095.25;5092524;27;20047;-60
2023/10/16 10:04:55;;;;;;;4.45;2.70;;;;;;;3.22;96.16;99087.53;5081308;27;20728;-61
2023/10/16 10:07:34;;;;;;;6.20;2.45;;;;;;;3.27;96.46;99098.72;5081186;27;20050;-61
2023/10/16 10:12:56;;;;;;;7.50;2.53;;;;;;;3.30;96.89;99098.69;5080518;27;20051;-61
2023/10/16 10:15:30;;;;;;;10.10;3.30;;;;;;;3.27;96.95;99096.16;5081653;27;20051;-61
2023/10/16 10:18:31;;;;;;;6.50;3.33;;;;;;;3.22;96.81;99097.88;5092433;27;20059;-60
2023/10/16 10:21:02;;;;;;;7.82;3.30;;;;;;;3.29;97.01;99104.72;5091907;27;20047;-60
2023/10/16 10:23:36;;;;;;;6.13;3.97;;;;;;;3.35;96.97;99104.69;5081322;27;20358;-60
2023/10/16 10:26:07;;;;;;;9.05;3.30;;;;;;;3.41;96.89;99099.47;5091617;27;20061;-60
2023/10/16 10:28:40;;;;;;;8.70;3.67;;;;;;;3.38;97.13;99099.50;5080666;27;20069;-60
2023/10/16 10:31:14;;;;;;;11.55;4.13;;;;;;;3.33;96.87;99097.81;5088443;27;20075;-61
2023/10/16 10:33:51;;;;;;;5.65;3.15;;;;;;;3.13;97.40;99087.63;5091603;27;20047;-60
2023/10/16 10:36:34;;;;;;;5.95;3.17;;;;;;;3.16;98.36;99095.34;5080963;27;20044;-60
2023/10/16 10:39:49;;;;;;;11.88;5.43;;;;;;;3.05;98.31;99091.97;5091849;27;20102;-61
2023/10/16 10:42:25;;;;;;;12.10;6.63;;;;;;;2.91;98.53;99092.84;5042017;27;20067;-61
2023/10/16 10:45:17;;;;;;;9.93;6.43;;;;;;;2.59;99.48;99044.81;5091900;27;20061;-61
2023/10/16 10:47:48;;;;;;;13.45;7.57;;;;;;;3.00;100.00;99098.00;5081023;27;20067;-60
2023/10/16 10:50:21;;;;;;;26.25;13.13;;;;;;;3.02;100.00;99096.25;5077724;27;20608;-60
2023/10/16 10:52:53;;;;;;;19.67;9.45;;;;;;;2.99;99.87;99080.78;5091148;27;20040;-60
2023/10/16 10:55:25;;;;;;;15.95;7.60;;;;;;;3.04;99.48;99101.41;5079510;27;20046;-61
2023/10/16 10:57:58;;;;;;;12.32;4.13;;;;;;;2.89;99.19;99094.59;5091167;27;20062;-61
2023/10/16 11:03:31;;;;;;;4.82;3.25;;;;;;;2.95;99.99;99104.91;5065606;27;20055;-61
2023/10/16 11:06:02;;;;;;;4.90;2.78;;;;;;;3.01;100.00;99104.84;5090502;27;20051;-61
2023/10/16 11:08:35;;;;;;;10.48;3.50;;;;;;;3.04;100.00;99119.47;5079743;27;20047;-61
2023/10/16 11:11:12;;;;;;;6.70;2.60;;;;;;;3.07;100.00;99108.28;5086683;27;20146;-61
2023/10/16 11:13:47;;;;;;;6.63;3.13;;;;;;;3.14;100.00;99115.13;5091125;27;20073;-60
2023/10/16 11:16:17;;;;;;;7.10;3.20;;;;;;;3.18;100.00;99111.69;5080450;27;20051;-61
2023/10/16 11:19:04;;;;;;;7.35;3.25;;;;;;;3.18;100.00;99106.50;5090599;27;20074;-60
2023/10/16 11:21:36;;;;;;;6.10;3.00;;;;;;;3.19;99.89;99109.06;5079888;27;20065;-61
2023/10/16 11:24:09;;;;;;;5.30;3.55;;;;;;;3.27;100.00;99114.22;5091134;27;20038;-60
2023/10/16 11:26:41;;;;;;;70.00;29.08;;;;;;;3.31;100.00;99108.16;5079992;27;20497;-61
2023/10/16 11:29:13;;;;;;;125.55;43.95;;;;;;;3.42;100.00;99115.81;5085920;27;20111;-60
2023/10/16 11:31:44;;;;;;;119.75;39.42;;;;;;;3.53;100.00;99118.38;5090686;27;20129;-61
2023/10/16 11:34:21;;;;;;;87.28;32.50;;;;;;;3.65;100.00;99124.31;5079829;27;20059;-60
2023/10/16 11:36:52;;;;;;;64.28;21.88;;;;;;;3.68;100.00;99123.44;5090069;27;20051;-61
2023/10/16 11:39:26;;;;;;;69.53;25.65;;;;;;;3.72;100.00;99119.09;5079735;27;20130;-61
2023/10/16 11:41:58;;;;;;;62.05;22.70;;;;;;;3.57;100.00;99099.38;5090822;27;20447;-61
2023/10/16 11:44:32;;;;;;;48.60;18.77;;;;;;;3.65;99.95;99126.88;5079413;27;20112;-61
2023/10/16 11:47:03;;;;;;;45.97;17.65;;;;;;;3.70;100.00;99132.03;5090315;27;20816;-61
2023/10/16 11:49:37;;;;;;;37.63;14.70;;;;;;;3.68;100.00;99118.25;5079649;27;20058;-60
2023/10/16 11:52:19;;;;;;;34.53;13.57;;;;;;;3.71;100.00;99128.56;5089635;27;20487;-60
2023/10/16 11:54:56;;;;;;;27.02;11.48;;;;;;;3.43;99.87;99087.44;5079255;27;20047;-60
2023/10/16 11:57:27;;;;;;;20.10;8.50;;;;;;;3.65;99.45;99126.88;5079032;27;20474;-60
2023/10/16 11:59:57;;;;;;;22.38;8.90;;;;;;;3.62;99.15;99126.03;5090501;27;20051;-60
2023/10/16 12:02:29;;;;;;;16.77;7.55;;;;;;;3.58;99.50;99117.47;5079586;27;20486;-61
2023/10/16 12:05:05;;;;;;;16.58;8.32;;;;;;;3.62;99.86;99133.78;5089807;27;20865;-60
2023/10/16 12:07:43;;;;;;;18.20;8.88;;;;;;;3.63;99.90;99125.19;5077712;27;20134;-60
2023/10/16 12:10:16;;;;;;;20.42;8.45;;;;;;;3.63;100.00;99125.19;5078372;27;20119;-60
2023/10/16 12:12:47;;;;;;;16.27;7.78;;;;;;;3.57;100.00;99126.09;5089570;27;20112;-60
2023/10/16 12:15:17;;;;;;;12.68;6.07;;;;;;;3.65;100.00;99128.63;5078410;27;20062;-61
2023/10/16 12:17:48;;;;;;;10.70;5.80;;;;;;;3.73;100.00;99131.16;5089404;27;20117;-60
2023/10/16 12:20:18;;;;;;;11.25;5.72;;;;;;;3.72;100.00;99127.72;5077262;27;20055;-60
2023/10/16 12:22:49;;;;;;;11.18;4.53;;;;;;;3.73;100.00;99126.84;5089287;27;20816;-60
2023/10/16 12:25:23;;;;;;;10.40;4.63;;;;;;;3.44;100.00;99084.00;5079140;27;20047;-61
2023/10/16 12:27:53;;;;;;;8.80;4.70;;;;;;;3.64;100.00;99119.13;5089215;27;20058;-61
2023/10/16 12:30:27;;;;;;;34.63;15.73;;;;;;;3.65;100.00;99118.28;5079114;27;20055;-60
2023/10/16 12:32:59;;;;;;;38.55;15.90;;;;;;;3.70;100.00;99111.38;5089790;27;20128;-60
2023/10/16 12:35:30;;;;;;;35.63;16.10;;;;;;;3.74;100.00;99113.03;5079122;27;20054;-61
2023/10/16 12:38:04;;;;;;;34.67;14.93;;;;;;;3.77;100.00;99107.00;5089612;27;20575;-60
2023/10/16 12:40:37;;;;;;;25.35;11.75;;;;;;;3.76;100.00;99116.47;5078689;27;20252;-61
2023/10/16 12:43:07;;;;;;;27.75;11.20;;;;;;;3.79;100.00;99115.59;5089342;27;20111;-61
2023/10/16 12:45:40;;;;;;;18.95;9.57;;;;;;;3.82;100.00;99119.03;5078579;28;20051;-61
2023/10/16 12:48:11;;;;;;;18.00;8.77;;;;;;;3.83;100.00;99125.91;5084960;28;20205;-61
2023/10/16 12:50:41;;;;;;;15.10;6.82;;;;;;;3.82;100.00;99125.91;5089565;28;20050;-61
2023/10/16 12:53:24;;;;;;;9.75;5.50;;;;;;;3.87;100.00;99129.34;5078548;28;20048;-60
2023/10/16 12:55:58;;;;;;;7.30;4.53;;;;;;;3.86;99.85;99122.44;5088820;28;20061;-61
2023/10/16 12:58:29;;;;;;;10.55;5.25;;;;;;;3.94;99.98;99120.63;5078654;28;20151;-61
2023/10/16 13:01:00;;;;;;;9.20;4.93;;;;;;;4.00;100.00;99117.16;5089162;28;20051;-61
2023/10/16 13:03:34;;;;;;;10.30;4.43;;;;;;;4.13;100.00;99113.59;5078556;28;20469;-61
2023/10/16 13:06:07;;;;;;;10.75;4.25;;;;;;;4.28;99.36;99115.19;5089545;28;20051;-61
2023/10/16 13:08:37;;;;;;;11.00;3.97;;;;;;;4.36;98.33;99113.38;5081024;27;20055;-61
2023/10/16 13:11:10;;;;;;;8.80;4.13;;;;;;;4.38;97.69;99090.09;5092804;27;20130;-61
2023/10/16 13:13:41;;;;;;;8.68;4.05;;;;;;;4.50;96.61;99100.31;5082042;27;20055;-61
2023/10/16 13:16:11;;;;;;;8.77;4.00;;;;;;;4.53;94.89;99105.47;5088698;27;20100;-61
2023/10/16 13:18:43;;;;;;;5.07;3.33;;;;;;;4.51;94.44;99112.38;5093143;27;20059;-60
2023/10/16 13:21:14;;;;;;;8.10;3.47;;;;;;;4.42;93.86;99107.28;5082692;27;20074;-60
2023/10/16 13:23:44;;;;;;;9.45;4.25;;;;;;;4.13;93.43;99090.34;5094136;27;20043;-60
2023/10/16 13:26:37;;;;;;;9.13;4.22;;;;;;;3.91;94.84;99109.47;5082188;27;20067;-60
2023/10/16 13:29:09;;;;;;;6.53;3.70;;;;;;;3.77;95.77;99091.47;5092902;27;20066;-60
2023/10/16 13:31:40;;;;;;;7.63;4.38;;;;;;;3.73;96.76;99101.00;5082272;27;20966;-60
2023/10/16 13:34:13;;;;;;;7.97;3.53;;;;;;;3.70;97.41;99095.88;5090227;27;20066;-60
2023/10/16 13:36:56;;;;;;;10.77;4.90;;;;;;;3.67;97.71;99095.88;5093049;27;20051;-60
2023/10/16 13:39:31;;;;;;;11.32;4.10;;;;;;;3.57;97.61;99094.22;5081963;27;20055;-61
2023/10/16 13:42:07;;;;;;;6.80;5.60;;;;;;;3.49;97.59;99098.59;5092894;27;20063;-60
2023/10/16 13:44:39;;;;;;;7.15;5.00;;;;;;;3.40;97.52;99096.94;5080653;27;20054;-61